Time;durP1;ratioP1;P1;durP2;ratioP2;P2;SDS_P1;SDS_P2;PMS_P1;PMS_P2;Temp;Humidity;BMP_temperature;BMP_pressure;BME280_temperature;BME280_humidity;BME280_pressure;Samples;Min_cycle;Max_cycle;Signal;HPM_P1;HPM_P2
2023/07/27 00:00:40;;;;;;;0.80;0.43;;;;;;;25.06;53.07;94320.28;5111685;28;20436;-52
2023/07/27 00:03:10;;;;;;;2.53;0.50;;;;;;;25.17;54.49;94326.47;5111764;28;20984;-52
2023/07/27 00:05:38;;;;;;;2.83;0.70;;;;;;;25.04;52.31;94317.19;5112117;28;20442;-52
2023/07/27 00:08:07;;;;;;;0.60;0.47;;;;;;;25.09;53.94;94319.50;5112358;28;20506;-52
2023/07/27 00:10:35;;;;;;;0.70;0.50;;;;;;;24.76;52.38;94322.50;5086239;28;20427;-52
2023/07/27 00:13:03;;;;;;;0.47;0.40;;;;;;;24.49;53.49;94326.63;5111326;28;20483;-52
2023/07/27 00:15:32;;;;;;;0.83;0.70;;;;;;;24.67;54.43;94324.78;5099383;28;20951;-52
2023/07/27 00:18:00;;;;;;;0.60;0.53;;;;;;;25.01;55.33;94333.44;5111945;28;20435;-52
2023/07/27 00:20:30;;;;;;;0.60;0.50;;;;;;;25.29;53.54;94338.13;5111991;28;20493;-52
2023/07/27 00:22:58;;;;;;;1.23;0.73;;;;;;;24.83;53.76;94335.31;5111799;28;20500;-52
2023/07/27 00:25:27;;;;;;;0.67;0.50;;;;;;;24.71;54.50;94335.63;5112071;28;20439;-52
2023/07/27 00:27:55;;;;;;;0.50;0.40;;;;;;;24.64;54.28;94353.41;5112046;28;20431;-51
2023/07/27 00:30:24;;;;;;;0.70;0.60;;;;;;;24.85;54.61;94346.53;5111609;28;20435;-51
2023/07/27 00:32:52;;;;;;;0.50;0.40;;;;;;;25.01;57.51;94339.63;5111792;28;20435;-51
2023/07/27 00:35:21;;;;;;;0.40;0.30;;;;;;;24.92;52.65;94341.91;5112198;28;20898;-50
2023/07/27 00:37:50;;;;;;;0.50;0.40;;;;;;;25.04;54.61;94346.22;5111022;28;20475;-51
2023/07/27 00:40:19;;;;;;;0.50;0.40;;;;;;;25.24;54.63;94353.63;5111826;28;20440;-51
2023/07/27 00:42:47;;;;;;;0.50;0.40;;;;;;;25.10;55.87;94347.38;5111741;28;20446;-51
2023/07/27 00:45:16;;;;;;;0.40;0.27;;;;;;;25.46;54.14;94353.66;5111893;28;20836;-51
2023/07/27 00:47:45;;;;;;;0.50;0.30;;;;;;;25.57;56.28;94338.19;5110785;28;20472;-51
2023/07/27 00:50:14;;;;;;;1.17;1.17;;;;;;;25.63;56.51;94342.03;5111389;28;20790;-51
2023/07/27 00:52:42;;;;;;;0.50;0.40;;;;;;;25.68;55.86;94338.94;5085342;28;20464;-51
2023/07/27 00:55:12;;;;;;;0.50;0.40;;;;;;;25.51;55.68;94343.22;5110715;28;20450;-51
2023/07/27 00:57:41;;;;;;;1.40;0.30;;;;;;;25.22;53.18;94338.91;5111491;28;20554;-52
2023/07/27 01:00:10;;;;;;;0.97;0.43;;;;;;;25.16;54.78;94324.16;5111108;28;20474;-52
2023/07/27 01:02:38;;;;;;;0.60;0.30;;;;;;;25.30;57.83;94342.41;5112148;28;20439;-52
2023/07/27 01:05:07;;;;;;;0.50;0.40;;;;;;;25.29;53.81;94343.53;5114863;28;20447;-52
2023/07/27 01:07:35;;;;;;;0.60;0.40;;;;;;;25.30;57.78;94340.44;5115018;28;20489;-52
2023/07/27 01:10:04;;;;;;;0.67;0.63;;;;;;;25.22;57.01;94334.22;5114447;28;20458;-51
2023/07/27 01:12:43;;;;;;;0.40;0.20;;;;;;;25.37;58.28;94336.97;5115241;28;20869;-51
2023/07/27 01:15:14;;;;;;;0.47;0.33;;;;;;;25.14;55.04;94343.53;5115027;28;20432;-52
2023/07/27 01:17:50;;;;;;;0.40;0.30;;;;;;;24.73;54.86;94350.34;5115050;28;20482;-52
2023/07/27 01:20:27;;;;;;;0.50;0.40;;;;;;;24.74;53.96;94343.00;5115051;28;20463;-53
2023/07/27 01:23:28;;;;;;;0.50;0.30;;;;;;;24.66;56.26;94346.84;5114997;28;20467;-52
2023/07/27 01:26:27;;;;;;;1.00;0.40;;;;;;;24.27;54.55;94349.34;5080241;28;20447;-52
2023/07/27 01:29:13;;;;;;;0.80;0.60;;;;;;;23.72;56.28;94354.78;5096647;28;20459;-52
2023/07/27 01:31:45;;;;;;;1.83;1.17;;;;;;;23.10;56.56;94291.66;5088367;28;20440;-52
2023/07/27 01:34:18;;;;;;;0.50;0.40;;;;;;;23.43;56.97;94350.28;5114575;28;20432;-52
2023/07/27 01:36:53;;;;;;;1.17;1.07;;;;;;;23.46;56.96;94344.13;5114505;28;20463;-52
2023/07/27 01:39:23;;;;;;;0.50;0.30;;;;;;;23.34;57.28;94342.47;5114170;28;20518;-51
2023/07/27 01:41:52;;;;;;;0.60;0.60;;;;;;;23.45;57.24;94352.63;5114697;28;20444;-51
2023/07/27 01:44:22;;;;;;;0.60;0.60;;;;;;;23.41;57.48;94359.91;5113906;28;20464;-52
2023/07/27 01:46:53;;;;;;;2.17;0.83;;;;;;;23.13;56.92;94325.25;5106566;28;20447;-52
2023/07/27 01:49:24;;;;;;;2.93;1.33;;;;;;;23.33;57.91;94359.06;5113827;28;20929;-52
2023/07/27 01:51:54;;;;;;;1.03;0.97;;;;;;;23.16;58.09;94356.97;5113856;28;20866;-51
2023/07/27 01:54:23;;;;;;;1.10;0.70;;;;;;;22.90;58.00;94344.34;5114362;28;20447;-51
2023/07/27 01:56:53;;;;;;;1.00;0.90;;;;;;;23.08;58.03;94371.56;5114228;28;20519;-52
2023/07/27 01:59:23;;;;;;;1.27;1.20;;;;;;;23.08;58.80;94366.94;5114367;28;20484;-52
2023/07/27 02:01:54;;;;;;;0.67;0.50;;;;;;;23.36;57.54;94372.66;5114261;28;20812;-52
2023/07/27 02:04:22;;;;;;;0.80;0.40;;;;;;;23.55;59.72;94379.00;5114177;28;20833;-52
2023/07/27 02:06:51;;;;;;;1.07;0.73;;;;;;;23.44;58.10;94381.59;5114310;28;20524;-51
2023/07/27 02:09:20;;;;;;;0.70;0.57;;;;;;;23.33;58.68;94377.97;5114546;28;20432;-51
2023/07/27 02:11:55;;;;;;;0.50;0.40;;;;;;;23.68;62.10;94366.75;5113619;28;20948;-51
2023/07/27 02:14:30;;;;;;;0.60;0.50;;;;;;;23.48;58.18;94374.28;5113440;28;20470;-51
2023/07/27 02:17:07;;;;;;;0.80;0.80;;;;;;;23.66;61.42;94364.41;5107654;28;20479;-52
2023/07/27 02:19:39;;;;;;;0.60;0.53;;;;;;;23.53;57.97;94367.78;5108226;28;20513;-51
2023/07/27 02:22:10;;;;;;;0.80;0.50;;;;;;;23.53;58.81;94370.47;5114189;28;21021;-52
2023/07/27 02:24:39;;;;;;;0.50;0.43;;;;;;;23.51;58.28;94376.25;5099809;28;20443;-51
2023/07/27 02:27:08;;;;;;;8.90;1.00;;;;;;;23.33;59.23;94380.69;5113715;28;20439;-51
2023/07/27 02:29:36;;;;;;;0.60;0.40;;;;;;;23.73;63.01;94377.97;5112416;28;20883;-51
2023/07/27 02:32:07;;;;;;;1.90;0.83;;;;;;;23.94;59.18;94380.06;5113379;28;20436;-51
2023/07/27 02:34:38;;;;;;;0.80;0.80;;;;;;;24.02;61.75;94387.09;5113136;28;20497;-52
2023/07/27 02:37:06;;;;;;;0.60;0.50;;;;;;;23.45;60.04;94395.91;5113479;28;20478;-52
2023/07/27 02:39:34;;;;;;;0.70;0.60;;;;;;;23.61;59.51;94401.84;5113500;28;20463;-52
2023/07/27 02:42:03;;;;;;;0.90;0.67;;;;;;;23.66;59.52;94412.31;5113125;28;20439;-52
2023/07/27 02:44:31;;;;;;;0.60;0.53;;;;;;;23.73;63.58;94415.84;5087082;28;20858;-51
2023/07/27 02:47:00;;;;;;;0.70;0.60;;;;;;;23.87;60.14;94412.50;5112872;28;20436;-51
2023/07/27 02:49:30;;;;;;;3.13;0.47;;;;;;;24.01;64.87;94418.00;5113250;28;20505;-51
2023/07/27 02:51:59;;;;;;;0.60;0.50;;;;;;;24.35;62.45;94418.66;5108151;28;20433;-51
2023/07/27 02:54:27;;;;;;;1.07;0.50;;;;;;;24.44;59.39;94416.38;5112884;28;20524;-51
2023/07/27 02:56:55;;;;;;;1.13;0.83;;;;;;;24.22;62.22;94422.81;5112541;28;20815;-51
2023/07/27 02:59:24;;;;;;;0.77;0.50;;;;;;;23.94;58.66;94429.56;5112913;28;20941;-51
2023/07/27 03:01:52;;;;;;;1.07;0.80;;;;;;;24.03;62.93;94438.13;5113145;28;20489;-51
2023/07/27 03:04:20;;;;;;;0.60;0.37;;;;;;;24.32;62.74;94441.06;5113128;28;20436;-51
2023/07/27 03:06:50;;;;;;;1.03;0.43;;;;;;;23.87;59.86;94447.69;5113045;28;20491;-51
2023/07/27 03:09:18;;;;;;;0.50;0.40;;;;;;;24.24;61.34;94447.59;5112581;28;20846;-51
2023/07/27 03:11:47;;;;;;;1.03;0.93;;;;;;;23.50;60.09;94446.97;5112317;28;20435;-51
2023/07/27 03:14:15;;;;;;;0.80;0.77;;;;;;;23.24;60.29;94459.41;5112638;28;20440;-52
2023/07/27 03:16:44;;;;;;;0.60;0.60;;;;;;;23.53;62.64;94459.75;5112671;28;20436;-51
2023/07/27 03:19:12;;;;;;;1.43;0.40;;;;;;;23.97;63.86;94466.72;5112508;28;20479;-51
2023/07/27 03:21:41;;;;;;;0.60;0.60;;;;;;;24.32;63.70;94468.94;5112536;28;20501;-51
2023/07/27 03:24:16;;;;;;;0.60;0.30;;;;;;;24.49;63.07;94465.56;5112544;28;20432;-51
2023/07/27 03:26:44;;;;;;;0.53;0.47;;;;;;;24.21;58.83;94456.50;5111804;28;20463;-51
2023/07/27 03:29:12;;;;;;;0.57;0.47;;;;;;;23.94;60.47;94459.34;5112708;28;20443;-52
2023/07/27 03:31:41;;;;;;;0.70;0.60;;;;;;;23.25;59.77;94476.41;5112564;28;20524;-51
2023/07/27 03:34:09;;;;;;;0.57;0.33;;;;;;;23.41;63.22;94492.44;5111576;27;20443;-52
2023/07/27 03:36:37;;;;;;;0.70;0.63;;;;;;;23.17;60.35;94494.44;5111984;28;20489;-52
2023/07/27 03:39:06;;;;;;;3.40;0.90;;;;;;;23.51;61.52;94494.47;5111927;28;20479;-52
2023/07/27 03:41:35;;;;;;;0.60;0.60;;;;;;;24.05;64.18;94499.25;5112023;28;20505;-52
2023/07/27 03:44:04;;;;;;;2.97;0.70;;;;;;;23.87;63.38;94505.28;5112515;28;20466;-52
2023/07/27 03:46:32;;;;;;;1.13;0.30;;;;;;;24.12;63.65;94502.84;5111836;28;21010;-52
2023/07/27 03:49:01;;;;;;;0.50;0.37;;;;;;;24.14;59.90;94507.84;5110969;28;20894;-52
2023/07/27 03:51:29;;;;;;;0.60;0.40;;;;;;;24.29;63.20;94507.59;5111507;28;20467;-52
2023/07/27 03:53:58;;;;;;;0.40;0.30;;;;;;;24.25;63.78;94503.31;5111708;28;20467;-52
2023/07/27 03:56:27;;;;;;;0.47;0.30;;;;;;;24.45;62.63;94507.34;5112106;28;20953;-51
2023/07/27 03:58:57;;;;;;;1.83;0.67;;;;;;;23.96;61.62;94521.22;5111499;28;20499;-51
2023/07/27 04:01:25;;;;;;;0.90;0.90;;;;;;;23.70;59.98;94527.56;5112205;28;20775;-52
2023/07/27 04:03:54;;;;;;;2.70;0.80;;;;;;;23.69;61.07;94525.19;5111812;28;20492;-52
2023/07/27 04:06:22;;;;;;;0.50;0.40;;;;;;;24.16;63.61;94516.41;5111625;28;20467;-51
2023/07/27 04:08:50;;;;;;;0.93;0.93;;;;;;;24.45;63.59;94518.97;5112028;28;20485;-52
2023/07/27 04:11:18;;;;;;;0.63;0.63;;;;;;;23.75;63.41;94507.50;5112198;28;20436;-52
2023/07/27 04:13:47;;;;;;;0.50;0.30;;;;;;;23.94;63.14;94499.94;5111703;28;20501;-52
2023/07/27 04:16:16;;;;;;;2.10;0.37;;;;;;;24.30;61.77;94513.81;5111667;28;20447;-52
2023/07/27 04:18:45;;;;;;;0.50;0.30;;;;;;;24.39;63.23;94514.25;5112019;28;20946;-50
2023/07/27 04:21:13;;;;;;;0.47;0.30;;;;;;;24.50;62.34;94520.53;5112002;28;20439;-51
2023/07/27 04:23:41;;;;;;;0.50;0.30;;;;;;;24.45;62.67;94526.31;5112152;28;20500;-51
2023/07/27 04:26:10;;;;;;;1.90;0.57;;;;;;;23.97;61.30;94520.06;5111708;28;20439;-52
2023/07/27 04:28:38;;;;;;;0.80;0.77;;;;;;;23.65;62.11;94532.50;5103063;28;20449;-51
2023/07/27 04:31:06;;;;;;;1.43;1.33;;;;;;;23.69;63.07;94531.41;5107541;28;20439;-52
2023/07/27 04:33:36;;;;;;;1.00;0.83;;;;;;;23.41;63.39;94547.31;5111251;28;20948;-51
2023/07/27 04:36:05;;;;;;;4.50;1.20;;;;;;;23.01;63.49;94555.25;5110998;28;20503;-52
2023/07/27 04:38:33;;;;;;;0.80;0.80;;;;;;;23.32;62.09;94544.88;5115931;28;20478;-50
2023/07/27 04:41:02;;;;;;;0.80;0.80;;;;;;;23.17;63.12;94526.13;5115637;28;20444;-51
2023/07/27 04:43:30;;;;;;;0.80;0.80;;;;;;;23.18;63.28;94541.97;5115614;28;20442;-51
2023/07/27 04:45:58;;;;;;;1.33;1.23;;;;;;;23.14;64.20;94551.19;5115143;28;20526;-51
2023/07/27 04:48:26;;;;;;;1.90;0.93;;;;;;;23.46;64.34;94557.81;5115502;28;20431;-52
2023/07/27 04:50:56;;;;;;;1.00;1.00;;;;;;;23.45;65.03;94555.47;5115443;28;20509;-51
2023/07/27 04:53:25;;;;;;;0.60;0.60;;;;;;;23.76;64.50;94550.41;5115054;28;20479;-50
2023/07/27 04:55:53;;;;;;;1.57;1.40;;;;;;;23.52;63.67;94552.84;5115696;28;20435;-50
2023/07/27 04:58:22;;;;;;;1.73;1.20;;;;;;;23.34;64.51;94556.09;5115378;28;20545;-50
2023/07/27 05:00:53;;;;;;;1.50;1.43;;;;;;;23.51;64.27;94562.88;5115650;27;20443;-50
2023/07/27 05:03:22;;;;;;;6.13;2.47;;;;;;;23.70;62.94;94578.97;5115408;28;20444;-50
2023/07/27 05:05:53;;;;;;;1.33;1.27;;;;;;;23.17;63.63;94574.81;5115418;28;20492;-50
2023/07/27 05:08:22;;;;;;;1.33;0.97;;;;;;;23.17;63.63;94582.91;5114913;28;20439;-50
2023/07/27 05:10:51;;;;;;;1.57;0.77;;;;;;;23.45;63.90;94575.19;5115242;28;20500;-50
2023/07/27 05:13:19;;;;;;;1.30;0.80;;;;;;;23.51;63.71;94584.53;5114473;28;20459;-51
2023/07/27 05:15:48;;;;;;;3.27;1.20;;;;;;;23.46;62.36;94592.16;5114331;28;20499;-50
2023/07/27 05:18:16;;;;;;;4.00;1.13;;;;;;;23.49;62.53;94594.94;5115120;28;20511;-50
2023/07/27 05:20:45;;;;;;;0.77;0.77;;;;;;;23.39;62.22;94595.59;5114631;28;20443;-50
2023/07/27 05:23:13;;;;;;;2.10;0.70;;;;;;;23.50;61.67;94595.72;5114507;28;20431;-50
2023/07/27 05:25:43;;;;;;;1.10;0.73;;;;;;;23.75;61.66;94600.28;5115282;28;20799;-50
2023/07/27 05:28:11;;;;;;;0.57;0.40;;;;;;;24.20;61.93;94609.28;5114383;28;20510;-50
2023/07/27 05:30:39;;;;;;;0.60;0.50;;;;;;;24.34;60.20;94582.31;5114814;28;20489;-50
2023/07/27 05:33:07;;;;;;;0.77;0.77;;;;;;;24.63;62.61;94603.09;5114335;28;20945;-50
2023/07/27 05:35:36;;;;;;;0.40;0.30;;;;;;;24.78;60.90;94612.13;5114979;28;20476;-50
2023/07/27 05:38:04;;;;;;;1.23;0.70;;;;;;;24.58;58.44;94614.25;5114481;28;20455;-50
2023/07/27 05:40:36;;;;;;;1.27;0.47;;;;;;;24.44;57.77;94600.59;5114712;28;20847;-50
2023/07/27 05:43:06;;;;;;;1.27;1.17;;;;;;;24.82;58.05;94621.84;5088911;28;20447;-50
2023/07/27 05:45:34;;;;;;;1.10;1.07;;;;;;;24.48;57.84;94594.06;5114059;28;20472;-50
2023/07/27 05:48:02;;;;;;;0.70;0.70;;;;;;;24.38;58.65;94619.13;5113838;28;20492;-49
2023/07/27 05:50:31;;;;;;;0.60;0.57;;;;;;;24.72;59.02;94614.38;5113630;28;20446;-50
2023/07/27 05:52:59;;;;;;;1.30;0.70;;;;;;;24.92;56.95;94618.41;5114090;28;20478;-50
2023/07/27 05:55:27;;;;;;;0.67;0.67;;;;;;;24.78;56.54;94628.38;5114240;27;20983;-50
2023/07/27 05:57:56;;;;;;;0.70;0.70;;;;;;;24.93;55.80;94613.78;5114730;28;20451;-49
2023/07/27 06:00:37;;;;;;;0.40;0.40;;;;;;;25.27;55.72;94610.50;5113964;28;20474;-48
2023/07/27 06:03:05;;;;;;;1.00;0.90;;;;;;;24.86;55.62;94619.94;5114539;28;20439;-50
2023/07/27 06:05:33;;;;;;;0.70;0.60;;;;;;;24.68;56.72;94624.41;5113993;28;20873;-50
2023/07/27 06:08:02;;;;;;;0.80;0.80;;;;;;;24.95;56.92;94620.38;5114512;28;20432;-50
2023/07/27 06:10:30;;;;;;;0.83;0.83;;;;;;;24.51;56.84;94609.56;5113776;28;20896;-50
2023/07/27 06:12:58;;;;;;;0.70;0.70;;;;;;;24.52;56.77;94610.34;5114212;28;20431;-50
2023/07/27 06:15:27;;;;;;;0.40;0.30;;;;;;;24.68;56.72;94618.22;5106130;28;20436;-50
2023/07/27 06:17:57;;;;;;;0.50;0.50;;;;;;;24.91;54.22;94606.03;5094746;28;20437;-50
2023/07/27 06:20:25;;;;;;;0.60;0.60;;;;;;;25.07;56.26;94606.50;5113782;28;20474;-49
2023/07/27 06:22:53;;;;;;;0.70;0.70;;;;;;;25.48;54.55;94607.16;5111778;28;20475;-51
2023/07/27 06:25:22;;;;;;;2.70;0.90;;;;;;;25.43;54.61;94610.22;5102512;28;20471;-50
2023/07/27 06:27:50;;;;;;;1.23;1.13;;;;;;;25.14;54.47;94606.59;5113993;28;20595;-50
2023/07/27 06:30:18;;;;;;;2.53;0.67;;;;;;;25.01;55.36;94608.03;5113501;27;20439;-50
2023/07/27 06:32:47;;;;;;;0.67;0.67;;;;;;;24.75;54.29;94597.38;5113668;28;20500;-51
2023/07/27 06:35:17;;;;;;;0.50;0.50;;;;;;;25.44;54.54;94600.13;5113292;28;20444;-50
2023/07/27 06:37:45;;;;;;;0.60;0.53;;;;;;;25.97;53.18;94594.94;5112777;28;20434;-50
2023/07/27 06:40:13;;;;;;;0.60;0.60;;;;;;;26.60;52.09;94591.56;5113100;28;20475;-50
2023/07/27 06:42:42;;;;;;;0.60;0.50;;;;;;;26.48;52.25;94585.34;5113575;28;20850;-50
2023/07/27 06:45:11;;;;;;;0.80;0.80;;;;;;;26.57;52.96;94595.84;5113171;28;20447;-50
2023/07/27 06:47:39;;;;;;;1.77;0.70;;;;;;;26.40;50.35;94596.59;5112554;28;20447;-50
2023/07/27 06:50:09;;;;;;;0.73;0.73;;;;;;;24.04;50.47;94292.75;5113068;28;20446;-50
2023/07/27 06:52:39;;;;;;;0.77;0.67;;;;;;;25.81;52.37;94611.56;5112190;28;20551;-51
2023/07/27 06:55:08;;;;;;;1.23;1.20;;;;;;;25.67;50.95;94608.81;5113176;28;20467;-50
2023/07/27 06:57:36;;;;;;;0.90;0.90;;;;;;;26.18;51.69;94598.53;5091592;28;20471;-50
2023/07/27 07:00:06;;;;;;;0.40;0.40;;;;;;;27.27;49.46;94603.19;5104629;28;20470;-49
2023/07/27 07:02:34;;;;;;;1.07;0.87;;;;;;;27.17;48.32;94612.16;5113077;28;20427;-49
2023/07/27 07:05:03;;;;;;;0.50;0.50;;;;;;;26.93;48.29;94612.94;5112552;28;20446;-50
2023/07/27 07:07:32;;;;;;;0.70;0.70;;;;;;;26.76;49.28;94613.72;5113199;28;20484;-50
2023/07/27 07:10:02;;;;;;;0.50;0.40;;;;;;;27.12;47.82;94604.38;5113066;28;20527;-51
2023/07/27 07:12:30;;;;;;;3.80;0.83;;;;;;;27.97;46.35;94613.06;5112945;28;20478;-67
2023/07/27 07:14:59;;;;;;;1.37;1.00;;;;;;;27.71;46.67;94616.28;5111698;28;20435;-57
2023/07/27 07:17:27;;;;;;;0.70;0.70;;;;;;;27.50;46.05;94610.94;5111793;28;20831;-58
2023/07/27 07:19:56;;;;;;;0.50;0.47;;;;;;;27.34;45.40;94605.88;5111696;28;20478;-53
2023/07/27 07:22:24;;;;;;;0.40;0.30;;;;;;;27.98;46.11;94613.84;5112856;28;20526;-57
2023/07/27 07:24:53;;;;;;;0.60;0.60;;;;;;;27.98;45.00;94605.69;5112421;28;20431;-57
2023/07/27 07:27:23;;;;;;;0.90;0.90;;;;;;;27.53;44.89;94593.78;5112707;28;20442;-57
2023/07/27 07:29:51;;;;;;;0.60;0.50;;;;;;;27.39;46.92;94599.28;5112650;28;20471;-57
2023/07/27 07:32:19;;;;;;;0.60;0.50;;;;;;;27.55;47.35;94605.84;5111231;28;20446;-59
2023/07/27 07:34:48;;;;;;;0.57;0.50;;;;;;;27.58;46.25;94610.50;5111385;28;20470;-56
2023/07/27 07:37:16;;;;;;;1.07;0.73;;;;;;;27.38;46.26;94612.09;5112434;28;20431;-57
2023/07/27 07:39:44;;;;;;;0.40;0.30;;;;;;;28.25;44.65;94615.69;5112187;28;20463;-56
2023/07/27 07:42:13;;;;;;;1.10;0.40;;;;;;;28.22;43.99;94610.25;5112072;28;20435;-56
2023/07/27 07:44:42;;;;;;;0.83;0.80;;;;;;;27.94;44.01;94615.81;5112263;28;20500;-57
2023/07/27 07:47:11;;;;;;;0.60;0.60;;;;;;;28.21;43.40;94642.16;5112328;28;20500;-56
2023/07/27 07:49:39;;;;;;;0.80;0.80;;;;;;;27.32;44.83;94646.34;5112548;28;20455;-56
2023/07/27 07:52:08;;;;;;;1.13;0.33;;;;;;;27.23;45.53;94640.50;5111647;28;20479;-57
2023/07/27 07:54:36;;;;;;;0.50;0.40;;;;;;;27.22;45.09;94625.34;5112017;28;20492;-55
2023/07/27 07:57:05;;;;;;;0.60;0.60;;;;;;;27.16;45.13;94629.63;5111948;28;20443;-57
2023/07/27 07:59:33;;;;;;;4.30;0.50;;;;;;;26.83;46.12;94638.97;5111311;28;20845;-57
2023/07/27 08:02:03;;;;;;;0.83;0.50;;;;;;;26.30;46.14;94638.91;5111725;28;20786;-56
2023/07/27 08:04:32;;;;;;;0.80;0.60;;;;;;;26.27;45.58;94642.38;5111717;28;20458;-57
2023/07/27 08:07:00;;;;;;;0.50;0.30;;;;;;;26.39;45.72;94641.22;5111490;28;20954;-58
2023/07/27 08:09:29;;;;;;;0.57;0.53;;;;;;;26.20;46.88;94650.53;5111295;28;20442;-59
2023/07/27 08:11:57;;;;;;;0.60;0.47;;;;;;;26.37;45.68;94649.00;5112330;28;20431;-59
2023/07/27 08:14:25;;;;;;;0.73;0.73;;;;;;;26.26;45.38;94642.78;5115954;28;20431;-59
2023/07/27 08:16:53;;;;;;;0.60;0.60;;;;;;;26.43;45.77;94659.13;5115471;28;20439;-57
2023/07/27 08:19:23;;;;;;;0.70;0.70;;;;;;;26.77;45.69;94661.50;5115679;28;20467;-57
2023/07/27 08:21:52;;;;;;;0.60;0.57;;;;;;;26.60;44.92;94662.22;5115615;28;21159;-57
2023/07/27 08:24:20;;;;;;;1.33;1.00;;;;;;;27.42;45.29;94656.44;5115177;28;20442;-59
2023/07/27 08:26:50;;;;;;;0.47;0.47;;;;;;;28.35;43.66;94657.66;5115633;28;20494;-56
2023/07/27 08:29:18;;;;;;;0.40;0.33;;;;;;;29.20;41.21;94654.38;5114305;28;20447;-58
2023/07/27 08:31:46;;;;;;;0.60;0.50;;;;;;;29.71;40.73;94648.78;5115708;28;20443;-56
2023/07/27 08:34:15;;;;;;;0.50;0.50;;;;;;;29.93;40.17;94644.66;5114828;28;20933;-56
2023/07/27 08:36:47;;;;;;;0.40;0.40;;;;;;;30.32;40.13;94632.44;5114109;28;20443;-56
2023/07/27 08:39:15;;;;;;;0.43;0.40;;;;;;;31.02;40.04;94630.66;5114346;28;20439;-55
2023/07/27 08:41:44;;;;;;;1.17;0.43;;;;;;;31.13;37.68;94640.25;5114813;28;20507;-55
2023/07/27 08:44:14;;;;;;;0.50;0.50;;;;;;;30.94;38.00;94632.72;5113980;28;20432;-54
2023/07/27 08:46:43;;;;;;;0.40;0.37;;;;;;;31.72;36.99;94629.44;5115243;28;20813;-55
2023/07/27 08:49:14;;;;;;;0.70;0.70;;;;;;;31.82;37.39;94628.44;5115533;28;20522;-56
2023/07/27 08:51:44;;;;;;;0.40;0.40;;;;;;;31.88;38.24;94625.97;5115054;28;20527;-56
2023/07/27 08:54:13;;;;;;;0.50;0.43;;;;;;;31.95;36.35;94614.88;5113723;28;20499;-56
2023/07/27 08:56:41;;;;;;;0.70;0.60;;;;;;;32.41;35.07;94614.69;5115210;28;20471;-56
2023/07/27 08:59:10;;;;;;;0.80;0.53;;;;;;;32.36;34.11;94612.44;5114625;28;20438;-55
2023/07/27 09:01:38;;;;;;;0.30;0.20;;;;;;;31.93;36.88;94489.19;5113803;28;20499;-54
2023/07/27 09:04:07;;;;;;;0.63;0.60;;;;;;;32.66;36.78;94608.66;5114687;28;20449;-56
2023/07/27 09:06:39;;;;;;;0.60;0.53;;;;;;;32.95;34.84;94626.00;5114039;28;20438;-55
2023/07/27 09:09:17;;;;;;;0.30;0.30;;;;;;;32.91;34.77;94608.06;5114832;28;20442;-56
2023/07/27 09:11:46;;;;;;;0.30;0.30;;;;;;;33.53;35.60;94599.41;5114122;28;20836;-55
2023/07/27 09:14:16;;;;;;;0.50;0.47;;;;;;;33.33;35.52;94609.75;5113534;28;20468;-55
2023/07/27 09:16:45;;;;;;;0.60;0.50;;;;;;;32.28;36.58;94611.06;5114438;28;20431;-55
2023/07/27 09:19:14;;;;;;;0.60;0.40;;;;;;;33.17;32.40;94601.53;5114594;28;20967;-55
2023/07/27 09:21:45;;;;;;;1.23;0.50;;;;;;;32.78;31.59;94582.50;5113910;27;20478;-56
2023/07/27 09:24:16;;;;;;;0.50;0.50;;;;;;;32.39;34.36;94523.03;5113232;28;20446;-55
2023/07/27 09:26:46;;;;;;;0.50;0.50;;;;;;;32.48;35.24;94592.59;5114693;28;21177;-56
2023/07/27 09:29:16;;;;;;;0.90;0.60;;;;;;;32.89;35.84;94588.53;5113608;28;20438;-53
2023/07/27 09:31:45;;;;;;;0.40;0.40;;;;;;;32.89;33.37;94596.75;5087593;28;20443;-56
2023/07/27 09:34:14;;;;;;;0.60;0.40;;;;;;;33.17;30.39;94585.06;5113764;28;20438;-55
2023/07/27 09:36:43;;;;;;;0.40;0.40;;;;;;;32.40;30.92;94519.88;5114746;28;20835;-56
2023/07/27 09:39:13;;;;;;;0.50;0.40;;;;;;;32.76;31.90;94573.94;5113648;28;20659;-55
2023/07/27 09:41:44;;;;;;;0.70;0.60;;;;;;;33.52;31.23;94586.88;5114314;28;20466;-55
2023/07/27 09:44:13;;;;;;;0.50;0.50;;;;;;;32.77;31.24;94594.66;5113939;28;20996;-55
2023/07/27 09:46:42;;;;;;;0.70;0.40;;;;;;;30.80;31.90;94589.94;5114288;28;20438;-56
2023/07/27 09:49:11;;;;;;;0.40;0.30;;;;;;;30.02;32.99;94597.69;5113866;28;20443;-55
2023/07/27 09:51:41;;;;;;;0.40;0.30;;;;;;;30.07;33.26;94600.75;5114781;28;20798;-50
2023/07/27 09:54:09;;;;;;;0.43;0.30;;;;;;;29.96;31.65;94594.66;5114198;28;20474;-51
2023/07/27 09:56:38;;;;;;;0.40;0.30;;;;;;;31.11;29.14;94587.88;5114178;28;20435;-52
2023/07/27 09:59:08;;;;;;;0.40;0.30;;;;;;;31.41;27.86;94604.16;5114014;27;20853;-53
2023/07/27 10:01:37;;;;;;;0.73;0.40;;;;;;;31.60;28.20;94599.88;5114155;28;20514;-51
2023/07/27 10:04:05;;;;;;;0.40;0.37;;;;;;;31.96;27.31;94578.81;5114565;28;20518;-52
2023/07/27 10:06:34;;;;;;;0.40;0.33;;;;;;;32.13;26.92;94590.59;5113578;28;20450;-52
2023/07/27 10:09:16;;;;;;;1.23;1.17;;;;;;;32.24;26.80;94582.16;5114002;28;20940;-52
2023/07/27 10:11:55;;;;;;;0.63;0.40;;;;;;;33.00;25.13;94586.25;5113608;27;20928;-52
2023/07/27 10:14:27;;;;;;;2.23;1.17;;;;;;;33.45;24.72;94591.78;5113765;28;20985;-51
2023/07/27 10:16:59;;;;;;;0.70;0.50;;;;;;;33.08;24.56;94524.50;5113703;28;20470;-52
2023/07/27 10:19:40;;;;;;;0.80;0.50;;;;;;;31.46;25.49;94602.13;5113617;28;20438;-52
2023/07/27 10:22:09;;;;;;;0.50;0.30;;;;;;;30.87;26.45;94602.72;5113798;28;20506;-52
2023/07/27 10:24:49;;;;;;;1.27;1.27;;;;;;;30.09;26.06;94592.91;5113693;28;20435;-52
2023/07/27 10:27:18;;;;;;;0.37;0.30;;;;;;;30.42;26.14;94601.47;5113459;28;20458;-52
2023/07/27 10:29:49;;;;;;;0.70;0.70;;;;;;;31.64;24.62;94597.09;5113260;28;20431;-52
2023/07/27 10:32:17;;;;;;;0.60;0.53;;;;;;;31.64;25.92;94603.34;5113484;28;20447;-51
2023/07/27 10:34:51;;;;;;;0.70;0.37;;;;;;;32.12;24.30;94604.75;5112355;28;20435;-59
2023/07/27 10:37:20;;;;;;;0.40;0.40;;;;;;;32.74;25.38;94598.28;5113100;28;20439;-55
2023/07/27 10:39:50;;;;;;;0.30;0.30;;;;;;;32.66;24.59;94592.22;5113393;28;20849;-55
2023/07/27 10:42:20;;;;;;;0.40;0.30;;;;;;;33.24;25.06;94598.63;5113180;28;20967;-56
2023/07/27 10:44:51;;;;;;;0.40;0.30;;;;;;;33.42;25.79;94595.44;5113002;28;20986;-55
2023/07/27 10:47:23;;;;;;;0.30;0.20;;;;;;;33.70;24.67;94603.69;5112238;28;20881;-55
2023/07/27 10:49:53;;;;;;;0.40;0.30;;;;;;;34.20;24.67;94585.81;5112882;28;20438;-55
2023/07/27 10:52:24;;;;;;;0.50;0.50;;;;;;;34.28;24.70;94592.63;5111906;28;20470;-55
2023/07/27 10:54:53;;;;;;;0.40;0.30;;;;;;;33.87;23.65;94596.16;5113244;27;20439;-55
2023/07/27 10:57:21;;;;;;;0.80;0.40;;;;;;;33.84;26.05;94595.06;5112185;28;20439;-54
2023/07/27 10:59:52;;;;;;;0.77;0.77;;;;;;;33.28;28.36;94606.78;5112888;28;20924;-54
2023/07/27 11:02:23;;;;;;;0.40;0.40;;;;;;;33.69;28.14;94604.13;5113148;28;21018;-55
2023/07/27 11:04:53;;;;;;;2.77;0.73;;;;;;;33.96;25.54;94590.00;5112892;28;20509;-54
2023/07/27 11:07:29;;;;;;;6.13;0.37;;;;;;;34.54;25.51;94591.41;5112566;28;20430;-55
2023/07/27 11:09:58;;;;;;;0.40;0.30;;;;;;;34.12;25.97;94600.97;5112160;28;20438;-54
2023/07/27 11:12:27;;;;;;;0.40;0.40;;;;;;;34.30;24.48;94584.72;5111915;28;20828;-55
2023/07/27 11:15:15;;;;;;;0.50;0.33;;;;;;;34.55;25.39;94582.00;5112154;28;20465;-55
2023/07/27 11:17:44;;;;;;;3.23;0.40;;;;;;;33.78;27.27;94524.53;5112966;28;20940;-55
2023/07/27 11:20:13;;;;;;;0.50;0.30;;;;;;;34.67;26.33;94597.72;5112957;28;20499;-56
2023/07/27 11:22:43;;;;;;;0.40;0.30;;;;;;;34.58;24.09;94583.09;5112587;28;20554;-54
2023/07/27 11:25:12;;;;;;;1.07;0.50;;;;;;;34.46;25.24;94588.13;5113070;28;20435;-55
2023/07/27 11:27:41;;;;;;;0.40;0.40;;;;;;;35.21;25.30;94585.78;5112152;28;20724;-55
2023/07/27 11:30:16;;;;;;;0.40;0.30;;;;;;;35.15;25.52;94598.56;5112717;28;20439;-55
2023/07/27 11:32:56;;;;;;;0.40;0.40;;;;;;;34.60;25.50;94600.72;5112522;28;20453;-55
2023/07/27 11:49:03;;;;;;;0.50;0.50;;;;;;;34.33;24.31;94619.59;5129088;27;20976;-54
2023/07/27 11:51:34;;;;;;;0.43;0.38;;;;;;;33.76;23.62;94632.19;5129763;27;20672;-54
2023/07/27 11:54:02;;;;;;;0.50;0.50;;;;;;;32.99;24.73;94640.41;5128985;27;20188;-54
2023/07/27 11:56:34;;;;;;;0.43;0.40;;;;;;;33.29;25.51;94644.81;5129148;28;20208;-54
2023/07/27 11:59:04;;;;;;;0.40;0.33;;;;;;;33.70;25.09;94647.66;5129459;28;20268;-54